Time;durP1;ratioP1;P1;durP2;ratioP2;P2;SDS_P1;SDS_P2;PMS_P1;PMS_P2;Temp;Humidity;BMP_temperature;BMP_pressure;BME280_temperature;BME280_humidity;BME280_pressure;Samples;Min_cycle;Max_cycle;Signal;HPM_P1;HPM_P2
2023/03/14 00:01:21;;;;;;;20.40;9.20;;;;;;;7.30;68.55;97095.56;435394;1265;99215;-41
2023/03/14 00:11:29;;;;;;;21.30;9.30;;;;;;;7.33;68.37;97066.89;435393;1260;110834;-41
2023/03/14 00:21:36;;;;;;;16.60;8.80;;;;;;;7.37;68.21;97041.86;435236;1257;107320;-41
2023/03/14 00:31:43;;;;;;;22.90;10.30;;;;;;;7.41;68.17;97013.92;435245;1256;99314;-41
2023/03/14 00:41:49;;;;;;;25.20;11.30;;;;;;;7.32;67.91;96984.27;435233;1257;108425;-40
2023/03/14 00:51:56;;;;;;;18.90;10.30;;;;;;;7.20;67.87;96964.59;435383;1256;99246;-39
2023/03/14 01:02:03;;;;;;;16.50;7.50;;;;;;;7.13;68.04;96950.82;435263;1251;112887;-41
2023/03/14 01:12:10;;;;;;;13.30;7.30;;;;;;;7.30;68.11;96925.89;435173;1256;108570;-40
2023/03/14 01:22:17;;;;;;;19.80;8.80;;;;;;;7.38;68.00;96882.80;435255;1255;98086;-41
2023/03/14 01:42:31;;;;;;;23.50;12.20;;;;;;;7.14;68.03;96862.73;435252;1256;99217;-40
2023/03/14 01:52:43;;;;;;;15.00;9.60;;;;;;;7.16;68.39;96890.66;435365;1251;111768;-41
2023/03/14 02:02:54;;;;;;;17.30;8.10;;;;;;;7.24;68.52;96901.11;435353;1257;108608;-40
2023/03/14 02:13:04;;;;;;;11.90;5.40;;;;;;;7.43;68.59;96880.92;435318;1265;99226;-42
2023/03/14 02:23:13;;;;;;;14.70;7.20;;;;;;;7.56;68.62;96867.08;435276;1263;112390;-42
2023/03/14 02:33:23;;;;;;;15.60;8.30;;;;;;;7.59;68.55;96875.94;436156;1252;108447;-41
2023/03/14 02:43:31;;;;;;;17.50;8.60;;;;;;;7.53;68.69;96850.69;435361;1256;99224;-40
2023/03/14 02:53:41;;;;;;;22.10;9.90;;;;;;;7.39;68.53;96855.08;435183;1257;109368;-41
2023/03/14 03:03:47;;;;;;;17.40;10.20;;;;;;;7.17;68.63;96874.52;435250;1251;99214;-41
2023/03/14 03:13:54;;;;;;;20.10;11.10;;;;;;;6.92;68.75;96913.18;435278;1251;112822;-40
2023/03/14 03:24:00;;;;;;;19.50;10.30;;;;;;;6.69;69.00;96909.85;435194;1264;108218;-40
2023/03/14 03:44:13;;;;;;;25.30;11.10;;;;;;;6.59;69.34;96903.79;435043;1256;315090;-41
2023/03/14 03:54:21;;;;;;;20.90;9.80;;;;;;;6.60;69.61;96889.19;435191;1257;108937;-42
2023/03/14 04:04:28;;;;;;;18.20;10.40;;;;;;;6.61;69.83;96871.71;435270;1256;99110;-40
2023/03/14 04:14:35;;;;;;;27.50;11.70;;;;;;;6.57;70.06;96866.58;435308;1255;109846;-42
2023/03/14 04:24:42;;;;;;;22.50;12.80;;;;;;;6.53;70.25;96842.29;435353;1252;99225;-40
2023/03/14 04:34:49;;;;;;;22.70;10.90;;;;;;;6.48;70.32;96816.23;435339;1256;111827;-41
2023/03/14 04:44:57;;;;;;;14.60;7.90;;;;;;;6.57;70.38;96784.98;435221;1264;108101;-41
2023/03/14 04:55:04;;;;;;;11.90;7.20;;;;;;;6.73;70.60;96769.25;435248;1256;98817;-39
2023/03/14 05:05:08;;;;;;;22.90;11.00;;;;;;;6.86;70.71;96752.27;435325;1258;113058;-41
2023/03/14 05:15:16;;;;;;;26.30;11.60;;;;;;;6.79;70.74;96738.41;435327;1257;107907;-40
2023/03/14 05:25:23;;;;;;;20.50;11.70;;;;;;;6.66;70.77;96721.19;436200;1255;99236;-40
2023/03/14 05:35:31;;;;;;;14.00;8.40;;;;;;;6.69;70.82;96720.17;435858;1256;112077;-41
2023/03/14 05:45:39;;;;;;;24.10;13.50;;;;;;;6.79;70.95;96729.42;435251;1256;108538;-39
2023/03/14 05:55:46;;;;;;;29.20;14.80;;;;;;;6.83;71.10;96728.92;435180;1257;99261;-41
2023/03/14 06:05:54;;;;;;;33.10;18.40;;;;;;;6.76;71.25;96730.61;435272;1251;106181;-41
2023/03/14 06:16:01;;;;;;;36.50;17.10;;;;;;;6.77;71.42;96712.30;435211;1256;99073;-41
2023/03/14 06:26:11;;;;;;;26.90;13.20;;;;;;;6.96;71.64;96702.55;435326;1251;112083;-41
2023/03/14 06:36:19;;;;;;;17.40;8.80;;;;;;;7.20;71.62;96693.06;435302;1257;108183;-41
2023/03/14 06:46:26;;;;;;;17.60;7.90;;;;;;;7.62;71.59;96682.20;435284;1256;99225;-42
2023/03/14 06:56:34;;;;;;;17.50;8.90;;;;;;;8.08;71.45;96669.16;435267;1251;112336;-41
2023/03/14 07:06:44;;;;;;;17.50;8.90;;;;;;;8.55;71.23;96668.59;435178;1257;109432;-40
2023/03/14 07:16:51;;;;;;;20.80;10.50;;;;;;;9.35;70.83;96671.85;435377;1257;99227;-40
2023/03/14 07:26:59;;;;;;;17.00;9.60;;;;;;;10.17;69.81;96668.79;435387;1256;109402;-41
2023/03/14 07:37:07;;;;;;;14.00;7.30;;;;;;;10.42;68.95;96674.16;435471;1256;99215;-40
2023/03/14 07:47:14;;;;;;;16.00;7.50;;;;;;;11.11;67.95;96690.38;435274;1254;112061;-42
2023/03/14 07:57:22;;;;;;;11.30;6.00;;;;;;;11.37;66.50;96688.90;435176;1256;108419;-43
2023/03/14 08:07:29;;;;;;;14.70;6.80;;;;;;;11.53;65.26;96685.05;435323;1256;98763;-40
2023/03/14 08:17:36;;;;;;;11.90;6.30;;;;;;;11.68;64.61;96700.88;435273;1256;107562;-41
2023/03/14 08:27:43;;;;;;;12.20;6.50;;;;;;;11.89;63.83;96691.35;435150;1256;99218;-40
2023/03/14 08:37:51;;;;;;;15.80;7.00;;;;;;;12.36;63.43;96688.11;435260;1254;113066;-41
2023/03/14 08:48:00;;;;;;;16.30;6.90;;;;;;;12.20;62.25;96704.77;435323;1256;107932;-42
2023/03/14 08:58:07;;;;;;;15.90;5.90;;;;;;;11.66;61.87;96716.94;435178;1253;99218;-42
2023/03/14 09:08:14;;;;;;;12.10;6.60;;;;;;;11.36;62.27;96716.38;435206;1257;108527;-41
2023/03/14 09:38:37;;;;;;;11.30;5.70;;;;;;;11.17;62.75;96721.75;435212;1256;107317;-41
2023/03/14 09:48:46;;;;;;;11.00;5.40;;;;;;;11.12;62.57;96723.33;435249;1252;98884;-40
2023/03/14 09:58:51;;;;;;;12.10;5.10;;;;;;;11.23;62.70;96729.84;435183;1256;108135;-40
2023/03/14 10:08:59;;;;;;;9.70;5.50;;;;;;;11.11;62.71;96720.21;435247;1253;99241;-41
2023/03/14 10:29:12;;;;;;;12.10;5.60;;;;;;;11.17;63.43;96699.63;435220;1256;108910;-40
2023/03/14 10:39:23;;;;;;;9.50;6.30;;;;;;;11.34;63.46;96701.30;435348;1256;98697;-41
2023/03/14 10:59:32;;;;;;;9.20;4.80;;;;;;;11.29;63.82;96764.64;435295;1253;99237;-41
2023/03/14 11:09:41;;;;;;;9.70;5.80;;;;;;;11.06;64.20;96780.15;435262;1253;112376;-40
2023/03/14 11:19:50;;;;;;;;;;;;;;;10.84;64.84;96793.59;435232;1256;108442;-40
2023/03/14 11:30:01;;;;;;;8.00;5.40;;;;;;;10.73;66.15;96795.68;435231;1256;99246;-41
2023/03/14 11:40:07;;;;;;;11.10;6.60;;;;;;;10.65;66.99;96794.73;435247;1256;107794;-40
2023/03/14 11:50:16;;;;;;;11.80;6.80;;;;;;;10.59;67.70;96785.45;435166;1256;98808;-41
2023/03/14 12:00:26;;;;;;;14.10;8.30;;;;;;;10.56;68.22;96778.18;435261;1252;111501;-40
2023/03/14 12:10:38;;;;;;;13.80;7.40;;;;;;;10.45;69.07;96782.96;435199;1253;107582;-41
2023/03/14 12:31:18;;;;;;;11.60;6.40;;;;;;;10.24;70.24;96750.27;435173;1252;107878;-40
2023/03/14 12:41:27;;;;;;;13.80;9.00;;;;;;;10.29;70.62;96735.45;435403;1252;98852;-41
2023/03/14 13:01:47;;;;;;;15.20;7.40;;;;;;;10.46;71.24;96725.04;435257;1253;107952;-41
2023/03/14 13:11:56;;;;;;;22.90;12.10;;;;;;;10.44;71.60;96720.88;435406;1256;99215;-41
2023/03/14 13:22:03;;;;;;;18.30;10.00;;;;;;;10.44;71.95;96729.80;435175;1253;108825;-40
2023/03/14 13:32:14;;;;;;;16.50;8.20;;;;;;;10.57;71.95;96719.77;435278;1253;99233;-43
2023/03/14 13:42:25;;;;;;;20.50;10.10;;;;;;;10.68;72.07;96731.27;435098;1256;111836;-42
2023/03/14 14:02:41;;;;;;;16.50;11.30;;;;;;;10.46;72.48;96746.90;435289;1252;99262;-39
2023/03/14 14:12:49;;;;;;;12.70;7.90;;;;;;;10.32;73.29;96743.39;435224;1252;108271;-40
2023/03/14 14:22:57;;;;;;;16.20;8.20;;;;;;;10.34;73.52;96730.97;435208;1256;99241;-40
2023/03/14 14:33:13;;;;;;;15.60;8.50;;;;;;;10.38;73.72;96707.95;435330;1256;112285;-40
2023/03/14 14:43:22;;;;;;;14.60;9.80;;;;;;;10.37;73.84;96707.18;435269;1256;107051;-41
2023/03/14 14:53:28;;;;;;;15.20;8.70;;;;;;;10.39;74.16;96716.98;435188;1253;99234;-41
2023/03/14 15:03:35;;;;;;;11.80;8.30;;;;;;;10.46;74.44;96708.02;435084;1256;108798;-41
2023/03/14 15:13:42;;;;;;;12.10;7.30;;;;;;;10.38;74.45;96718.25;435083;1253;97966;-40
2023/03/14 15:23:49;;;;;;;15.20;7.10;;;;;;;10.36;74.64;96718.59;435211;1256;112109;-41
2023/03/14 15:33:55;;;;;;;11.60;7.10;;;;;;;10.26;75.05;96700.86;435173;1256;107381;-39
2023/03/14 15:44:03;;;;;;;12.70;7.20;;;;;;;10.18;75.14;96675.85;435036;1253;363674;-41
2023/03/14 15:54:10;;;;;;;12.40;7.10;;;;;;;10.11;75.31;96689.82;435116;1256;109639;-42
2023/03/14 16:04:17;;;;;;;17.80;9.00;;;;;;;10.09;75.57;96690.95;435151;1256;98015;-40
2023/03/14 16:14:25;;;;;;;18.40;8.70;;;;;;;10.11;75.74;96680.11;435282;1252;111125;-40
2023/03/14 16:24:33;;;;;;;16.90;9.90;;;;;;;10.00;75.98;96675.27;435094;1256;108056;-40
2023/03/14 16:44:46;;;;;;;19.30;11.30;;;;;;;9.74;76.09;96707.92;435229;1256;107611;-41
2023/03/14 16:54:53;;;;;;;17.30;10.30;;;;;;;9.66;76.45;96705.30;435232;1253;99218;-40
2023/03/14 17:05:00;;;;;;;16.10;10.10;;;;;;;9.54;76.48;96714.23;435195;1256;109965;-40
2023/03/14 17:15:08;;;;;;;20.80;12.10;;;;;;;9.37;76.82;96721.02;434971;1256;109419;-40
2023/03/14 17:25:16;;;;;;;23.50;15.80;;;;;;;9.14;77.03;96728.52;435374;1256;99249;-40
2023/03/14 17:35:23;;;;;;;31.20;17.30;;;;;;;9.00;77.19;96729.48;435126;1253;107993;-40
2023/03/14 17:45:30;;;;;;;28.70;17.10;;;;;;;8.88;77.87;96739.29;435173;1253;99054;-40
2023/03/14 18:05:44;;;;;;;28.90;17.50;;;;;;;8.68;78.15;96756.90;435109;1253;107116;-41
2023/03/14 18:26:00;;;;;;;25.20;15.80;;;;;;;8.36;78.83;96782.09;435232;1253;107132;-41
2023/03/14 18:36:08;;;;;;;29.30;16.50;;;;;;;8.26;79.17;96778.34;435186;1253;99221;-40
2023/03/14 18:46:16;;;;;;;26.00;15.90;;;;;;;8.24;79.67;96780.96;435207;1256;111258;-41
2023/03/14 18:56:24;;;;;;;28.20;15.60;;;;;;;8.21;80.01;96785.44;435166;1256;108356;-40
2023/03/14 19:16:38;;;;;;;25.50;14.50;;;;;;;8.07;80.45;96807.73;435164;1256;108781;-41
2023/03/14 19:26:46;;;;;;;25.10;15.40;;;;;;;7.99;80.54;96812.79;435182;1256;99223;-41
2023/03/14 19:36:54;;;;;;;22.80;14.90;;;;;;;7.95;80.65;96811.09;435209;1256;111151;-40
2023/03/14 19:47:02;;;;;;;19.60;14.50;;;;;;;7.87;80.87;96803.39;435198;1253;108409;-41
2023/03/14 19:57:08;;;;;;;21.00;11.80;;;;;;;7.88;81.09;96809.86;435088;1256;98038;-40
2023/03/14 20:07:16;;;;;;;18.60;11.70;;;;;;;7.93;81.03;96812.52;435343;1253;107802;-40
2023/03/14 20:17:23;;;;;;;14.20;9.50;;;;;;;7.99;81.28;96811.48;434945;1257;97980;-42
2023/03/14 20:27:29;;;;;;;16.40;10.40;;;;;;;8.09;81.48;96816.38;435280;1253;112785;-41
2023/03/14 20:37:37;;;;;;;12.80;9.40;;;;;;;8.14;81.51;96826.86;435250;1256;108274;-41
2023/03/14 20:47:44;;;;;;;11.50;7.60;;;;;;;8.22;81.42;96839.15;435143;1256;99278;-40
2023/03/14 20:57:51;;;;;;;13.80;8.80;;;;;;;8.29;81.48;96852.46;435143;1256;107226;-41
2023/03/14 21:07:59;;;;;;;10.50;7.40;;;;;;;8.35;81.48;96857.45;435152;1255;97980;-40
2023/03/14 21:18:07;;;;;;;14.80;8.10;;;;;;;8.39;81.44;96855.79;435867;1256;112674;-41
2023/03/14 21:28:13;;;;;;;15.00;9.50;;;;;;;8.34;81.52;96845.39;435147;1256;107429;-41
2023/03/14 21:38:21;;;;;;;11.00;7.50;;;;;;;8.31;81.45;96838.58;435043;1256;99240;-41
2023/03/14 21:48:28;;;;;;;8.40;6.70;;;;;;;8.31;81.46;96848.10;435207;1253;109511;-41
2023/03/14 21:58:35;;;;;;;11.00;6.50;;;;;;;8.33;81.48;96856.44;435269;1258;98813;-41
2023/03/14 22:08:43;;;;;;;12.20;7.50;;;;;;;8.30;81.49;96898.34;435286;1256;110925;-41
2023/03/14 22:18:50;;;;;;;10.90;8.50;;;;;;;8.41;81.72;96935.39;435139;1254;108378;-42
2023/03/14 22:28:57;;;;;;;3.80;2.70;;;;;;;8.51;81.57;96983.06;435148;1257;99218;-40
2023/03/14 22:49:12;;;;;;;1.00;0.80;;;;;;;7.10;81.14;97067.83;435328;1256;99237;-41
2023/03/14 22:59:18;;;;;;;2.10;1.20;;;;;;;6.54;81.31;97107.19;435285;1253;113003;-40
2023/03/14 23:09:25;;;;;;;1.30;1.10;;;;;;;5.92;81.63;97166.17;435206;1266;111618;-40
2023/03/14 23:19:37;;;;;;;1.70;1.30;;;;;;;5.27;81.54;97214.08;435100;1257;98830;-40
2023/03/14 23:29:47;;;;;;;2.20;1.00;;;;;;;4.41;80.60;97257.98;435296;1265;108140;-40
2023/03/14 23:39:54;;;;;;;1.00;0.90;;;;;;;3.76;80.78;97311.95;435249;1266;99247;-39
2023/03/14 23:50:01;;;;;;;1.50;0.90;;;;;;;3.44;81.12;97344.84;435261;1256;111077;-39
